• Join FlightAware (Why Join?)
  • Login
  • US Flag 
10:25AM EDT


 

Airport Tracker/Info


-or-


 

Live Flight TrackerFlight Track Log ✈ CJC4991 ✈ 04-May-2012 ✈ KACT - KIAH

Flight Track Log - Related Links

Times and Time Zones

All times are in EDT time to prevent confusion due to time zone crossing. See the CJC4991 flight status page for this flight to view local times or setup timezone preferences in your user account.

Time Position Orientation Groundspeed Altitude Reporting Facility
EDT Latitude Longitude Course Direction KTS MPH feet Rate Location/Type
06:21PM 31.5916 -97.2107 147° Southeast  Level FlightAware Approximate
06:22PM 31.5464 -97.1574 152° Southeast  Level FlightAware Approximate
06:23PM 31.5012 -97.1043 160° South  Level FlightAware Approximate
06:24PM 31.4559 -97.0512 183° South  Level FlightAware Approximate
06:25PM 31.3861 -97.0556 148° Southeast 219 252 7,100  Level Fort Worth Center
06:26PM 31.3475 -97.0269 139° Southeast 223 257 7,600 780 Climbing Houston Center
06:27PM 31.2994 -96.9783 141° Southeast 235 270 8,500 840 Climbing Houston Center
06:28PM 31.2511 -96.9319 140° Southeast 235 270 9,300 780 Climbing Houston Center
06:29PM 31.2031 -96.8856 141° Southeast 235 270 10,100 780 Climbing Houston Center
06:30PM 31.1547 -96.8394 142° Southeast 235 270 10,900 780 Climbing Houston Center
06:31PM 31.1044 -96.7933 141° Southeast 235 270 11,700 540 Climbing Houston Center
06:32PM 31.0581 -96.7497 135° Southeast 235 270 12,000 120 Climbing Houston Center
06:33PM 31.0081 -96.6917 104° East 248 285 12,000  Level Houston Center
06:34PM 30.9903 -96.6083 100° East 278 320 12,000  Level Houston Center
06:35PM 30.9767 -96.5206 102° East 272 313 12,000  Level Houston Center
06:36PM 30.9611 -96.4350 102° East 272 313 12,000 -60 Level Houston Center
06:37PM 30.9453 -96.3497 103° East 266 306 11,900 -420 Descending Houston Center
06:38PM 30.9258 -96.2494 102° East 271 312 11,200 -660 Descending Houston Center
06:39PM 30.9081 -96.1544 126° Southeast 284 327 10,600 -780 Descending Houston Center
06:40PM 30.8625 -96.0822 150° Southeast 289 333 9,700 -840 Descending Houston Center
06:41PM 30.7972 -96.0383 149° Southeast 274 315 9,000 -360 Descending Houston Center
06:42PM 30.7319 -95.9919 152° Southeast 282 325 9,000  Level Houston Center
06:43PM 30.6644 -95.9506 148° Southeast 276 318 9,000  Level Houston Center
06:44PM 30.6033 -95.9069 149° Southeast 271 312 9,000  Level Houston Center
06:45PM 30.5400 -95.8633 150° Southeast 266 306 9,000  Level Houston Center
06:46PM 30.4744 -95.8194 152° Southeast 266 306 9,000 -300 Level Houston Center
06:47PM 30.4111 -95.7808 158° South 266 306 8,500 -540 Descending Houston Center
06:48PM 30.3389 -95.7467 243° Southwest 266 306 8,000 -300 Descending Houston Center
06:49PM 30.3075 -95.8175 219° Southwest 192 221 8,000  Level Houston Center
06:50PM 30.2581 -95.8636 178° South 204 235 8,000  Level Houston Center
06:51PM 30.1872 -95.8608 178° South 230 265 8,000  Level Houston Center
06:52PM 30.1206 -95.8581 157° South 236 272 8,000 -360 Level Houston Center
06:53PM 30.0836 -95.8397 152° Southeast 243 280 7,500 -840 Descending Houston Center
06:53PM 30.0631 -95.8269 155° Southeast 236 272 7,200 -540 Descending Houston Center
06:54PM 30.0242 -95.8061 116° Southeast 232 267 7,000 -240 Descending Houston Center
06:55PM 29.9969 -95.7428 96° East 230 265 6,900 -720 Descending Houston Center
06:56PM 29.9906 -95.6753 88° East 221 254 5,600 -1,380 Descending Houston Center
06:57PM 29.9928 -95.5961 93° East 217 250 4,100 -1,260 Descending Houston Center
06:58PM 29.9903 -95.5361 88° East 177 204 3,100 -1,020 Descending Houston Center
06:59PM 29.9919 -95.4786 93° East 183 211 2,100 -900 Descending Houston Center
07:00PM 29.9894 -95.4258 85° East 149 171 1,300 -780 Descending Houston Center
07:01PM 29.9925 -95.3828 85° East 120 138 600 -720 Descending Houston Center